sensor_id;sensor_type;location;lat;lon;timestamp;pressure;altitude;pressure_sealevel;temperature;humidity
56414;BME280;42318;48.452;19.526;2023-12-04T00:00:08;98968.13;;;20.11;55.10
56414;BME280;42318;48.452;19.526;2023-12-04T00:03:09;98964.81;;;20.09;55.45
56414;BME280;42318;48.452;19.526;2023-12-04T00:06:11;98974.63;;;20.10;55.58
56414;BME280;42318;48.452;19.526;2023-12-04T00:09:12;98968.94;;;20.12;55.57
56414;BME280;42318;48.452;19.526;2023-12-04T00:12:13;98975.69;;;20.09;54.97
56414;BME280;42318;48.452;19.526;2023-12-04T00:15:13;98975.69;;;20.09;55.16
56414;BME280;42318;48.452;19.526;2023-12-04T00:18:14;98980.66;;;20.12;55.32
56414;BME280;42318;48.452;19.526;2023-12-04T00:21:15;98979.25;;;20.10;55.44
56414;BME280;42318;48.452;19.526;2023-12-04T00:24:15;98981.13;;;20.09;54.99
56414;BME280;42318;48.452;19.526;2023-12-04T00:27:16;98982.22;;;20.08;55.22
56414;BME280;42318;48.452;19.526;2023-12-04T00:30:16;98981.97;;;20.10;55.41
56414;BME280;42318;48.452;19.526;2023-12-04T00:33:17;98982.78;;;20.10;55.35
56414;BME280;42318;48.452;19.526;2023-12-04T00:36:18;98983.84;;;20.09;55.11
56414;BME280;42318;48.452;19.526;2023-12-04T00:39:20;98986.81;;;20.07;55.00
56414;BME280;42318;48.452;19.526;2023-12-04T00:42:20;98990.84;;;20.05;55.24
56414;BME280;42318;48.452;19.526;2023-12-04T00:45:21;98990.13;;;20.10;55.13
56414;BME280;42318;48.452;19.526;2023-12-04T00:48:22;98993.91;;;20.08;55.09
56414;BME280;42318;48.452;19.526;2023-12-04T00:51:23;98996.41;;;20.10;54.92
56414;BME280;42318;48.452;19.526;2023-12-04T00:54:23;98991.44;;;20.07;55.42
56414;BME280;42318;48.452;19.526;2023-12-04T00:57:24;99001.00;;;20.10;55.08
56414;BME280;42318;48.452;19.526;2023-12-04T01:00:24;98998.53;;;20.08;54.81
56414;BME280;42318;48.452;19.526;2023-12-04T01:03:25;99005.03;;;20.07;55.10
56414;BME280;42318;48.452;19.526;2023-12-04T01:06:27;99006.69;;;20.08;55.23
56414;BME280;42318;48.452;19.526;2023-12-04T01:09:27;98999.59;;;20.07;55.07
56414;BME280;42318;48.452;19.526;2023-12-04T01:12:28;98995.97;;;20.01;55.38
56414;BME280;42318;48.452;19.526;2023-12-04T01:15:29;99006.13;;;20.06;55.39
56414;BME280;42318;48.452;19.526;2023-12-04T01:18:29;99001.50;;;20.06;55.17
56414;BME280;42318;48.452;19.526;2023-12-04T01:21:30;98999.03;;;20.05;54.75
56414;BME280;42318;48.452;19.526;2023-12-04T01:24:31;99001.75;;;20.05;55.27
56414;BME280;42318;48.452;19.526;2023-12-04T01:27:32;98991.84;;;19.99;54.99
56414;BME280;42318;48.452;19.526;2023-12-04T01:30:35;98991.34;;;20.02;54.89
56414;BME280;42318;48.452;19.526;2023-12-04T01:33:36;98994.91;;;20.02;54.82
56414;BME280;42318;48.452;19.526;2023-12-04T01:36:40;98988.63;;;20.02;54.77
56414;BME280;42318;48.452;19.526;2023-12-04T01:39:41;98982.59;;;20.00;55.11
56414;BME280;42318;48.452;19.526;2023-12-04T01:42:42;98989.13;;;19.99;54.86
56414;BME280;42318;48.452;19.526;2023-12-04T01:45:43;98986.63;;;19.97;54.93
56414;BME280;42318;48.452;19.526;2023-12-04T01:48:45;98989.38;;;19.97;54.94
56414;BME280;42318;48.452;19.526;2023-12-04T01:51:47;99000.25;;;19.97;54.97
56414;BME280;42318;48.452;19.526;2023-12-04T01:54:48;98996.44;;;19.98;54.96
56414;BME280;42318;48.452;19.526;2023-12-04T01:57:49;98991.25;;;19.97;54.67
56414;BME280;42318;48.452;19.526;2023-12-04T02:00:49;98990.66;;;19.95;54.78
56414;BME280;42318;48.452;19.526;2023-12-04T02:03:50;98986.88;;;19.96;54.75
56414;BME280;42318;48.452;19.526;2023-12-04T02:06:51;98992.53;;;19.94;54.79
56414;BME280;42318;48.452;19.526;2023-12-04T02:09:52;98990.66;;;19.95;54.74
56414;BME280;42318;48.452;19.526;2023-12-04T02:12:52;98985.44;;;19.93;54.56
56414;BME280;42318;48.452;19.526;2023-12-04T02:15:54;98992.78;;;19.93;54.78
56414;BME280;42318;48.452;19.526;2023-12-04T02:18:55;98990.88;;;19.93;54.62
56414;BME280;42318;48.452;19.526;2023-12-04T02:21:55;98989.47;;;19.91;54.70
56414;BME280;42318;48.452;19.526;2023-12-04T02:24:56;98990.31;;;19.91;54.69
56414;BME280;42318;48.452;19.526;2023-12-04T02:28:01;98990.06;;;19.93;54.64
56414;BME280;42318;48.452;19.526;2023-12-04T02:31:04;98989.47;;;19.91;54.36
56414;BME280;42318;48.452;19.526;2023-12-04T02:34:06;98982.38;;;19.90;54.59
56414;BME280;42318;48.452;19.526;2023-12-04T02:37:09;98984.03;;;19.91;54.57
56414;BME280;42318;48.452;19.526;2023-12-04T02:40:11;98987.72;;;19.85;54.81
56414;BME280;42318;48.452;19.526;2023-12-04T02:43:12;98979.56;;;19.85;54.72
56414;BME280;42318;48.452;19.526;2023-12-04T02:46:13;98989.97;;;19.88;54.85
56414;BME280;42318;48.452;19.526;2023-12-04T02:49:13;98990.78;;;19.88;54.79
56414;BME280;42318;48.452;19.526;2023-12-04T02:52:14;98994.25;;;19.84;54.45
56414;BME280;42318;48.452;19.526;2023-12-04T02:55:15;99004.63;;;19.87;54.43
56414;BME280;42318;48.452;19.526;2023-12-04T02:58:16;99000.25;;;19.86;54.53
56414;BME280;42318;48.452;19.526;2023-12-04T03:01:16;99015.50;;;19.87;54.36
56414;BME280;42318;48.452;19.526;2023-12-04T03:04:19;99008.41;;;19.86;54.54
56414;BME280;42318;48.452;19.526;2023-12-04T03:07:19;99020.94;;;19.87;54.90
56414;BME280;42318;48.452;19.526;2023-12-04T03:10:21;99023.91;;;19.85;54.62
56414;BME280;42318;48.452;19.526;2023-12-04T03:13:22;99019.53;;;19.84;54.30
56414;BME280;42318;48.452;19.526;2023-12-04T03:16:23;99035.03;;;19.84;54.52
56414;BME280;42318;48.452;19.526;2023-12-04T03:19:23;99020.84;;;19.82;54.49
56414;BME280;42318;48.452;19.526;2023-12-04T03:22:24;99018.72;;;19.84;54.53
56414;BME280;42318;48.452;19.526;2023-12-04T03:25:25;99023.56;;;19.82;54.49
56414;BME280;42318;48.452;19.526;2023-12-04T03:28:26;99014.00;;;19.79;54.62
56414;BME280;42318;48.452;19.526;2023-12-04T03:31:26;99014.34;;;19.83;54.75
56414;BME280;42318;48.452;19.526;2023-12-04T03:34:28;99017.53;;;19.80;54.48
56414;BME280;42318;48.452;19.526;2023-12-04T03:37:29;99028.19;;;19.81;54.73
56414;BME280;42318;48.452;19.526;2023-12-04T03:40:30;99033.38;;;19.83;54.80
56414;BME280;42318;48.452;19.526;2023-12-04T03:43:30;99039.06;;;19.81;54.78
56414;BME280;42318;48.452;19.526;2023-12-04T03:46:31;99019.19;;;19.81;54.84
56414;BME280;42318;48.452;19.526;2023-12-04T03:49:31;99033.63;;;19.81;54.76
56414;BME280;42318;48.452;19.526;2023-12-04T03:52:32;99040.13;;;19.80;54.58
56414;BME280;42318;48.452;19.526;2023-12-04T03:55:32;99039.88;;;19.82;54.51
56414;BME280;42318;48.452;19.526;2023-12-04T03:58:33;99042.03;;;19.80;54.67
56414;BME280;42318;48.452;19.526;2023-12-04T04:01:34;99060.81;;;19.81;54.75
56414;BME280;42318;48.452;19.526;2023-12-04T04:04:34;99045.22;;;19.76;54.43
56414;BME280;42318;48.452;19.526;2023-12-04T04:07:35;99052.66;;;19.81;54.24
56414;BME280;42318;48.452;19.526;2023-12-04T04:10:36;99063.78;;;19.80;54.63
56414;BME280;42318;48.452;19.526;2023-12-04T04:13:37;99058.34;;;19.80;54.69
56414;BME280;42318;48.452;19.526;2023-12-04T04:16:37;99069.22;;;19.80;54.57
56414;BME280;42318;48.452;19.526;2023-12-04T04:19:38;99067.56;;;19.79;54.36
56414;BME280;42318;48.452;19.526;2023-12-04T04:22:39;99059.66;;;19.77;54.51
56414;BME280;42318;48.452;19.526;2023-12-04T04:25:41;99068.38;;;19.79;54.41
56414;BME280;42318;48.452;19.526;2023-12-04T04:28:42;99062.38;;;19.77;54.36
56414;BME280;42318;48.452;19.526;2023-12-04T04:31:42;99066.72;;;19.78;54.33
56414;BME280;42318;48.452;19.526;2023-12-04T04:34:43;99068.63;;;19.77;54.63
56414;BME280;42318;48.452;19.526;2023-12-04T04:37:43;99074.06;;;19.77;54.24
56414;BME280;42318;48.452;19.526;2023-12-04T04:40:44;99068.63;;;19.77;54.10
56414;BME280;42318;48.452;19.526;2023-12-04T04:43:44;99071.34;;;19.77;54.59
56414;BME280;42318;48.452;19.526;2023-12-04T04:46:45;99074.31;;;19.76;54.30
56414;BME280;42318;48.452;19.526;2023-12-04T04:49:46;99071.81;;;19.74;54.37
56414;BME280;42318;48.452;19.526;2023-12-04T04:52:47;99078.91;;;19.75;54.36
56414;BME280;42318;48.452;19.526;2023-12-04T04:55:47;99076.19;;;19.75;54.43
56414;BME280;42318;48.452;19.526;2023-12-04T04:58:48;99071.81;;;19.74;54.37
56414;BME280;42318;48.452;19.526;2023-12-04T05:01:48;99070.19;;;19.73;54.20
56414;BME280;42318;48.452;19.526;2023-12-04T05:04:49;99059.19;;;19.68;54.15
56414;BME280;42318;48.452;19.526;2023-12-04T05:07:50;99061.91;;;19.68;54.43
56414;BME280;42318;48.452;19.526;2023-12-04T05:10:50;99064.72;;;19.73;54.33
56414;BME280;42318;48.452;19.526;2023-12-04T05:13:52;99056.59;;;19.73;54.10
56414;BME280;42318;48.452;19.526;2023-12-04T05:16:52;99059.53;;;19.72;54.01
56414;BME280;42318;48.452;19.526;2023-12-04T05:19:53;99045.84;;;19.67;54.24
56414;BME280;42318;48.452;19.526;2023-12-04T05:22:53;99065.22;;;19.70;54.34
56414;BME280;42318;48.452;19.526;2023-12-04T05:25:54;99056.00;;;19.71;53.97
56414;BME280;42318;48.452;19.526;2023-12-04T05:28:55;99056.00;;;19.71;54.24
56414;BME280;42318;48.452;19.526;2023-12-04T05:31:55;99050.22;;;19.68;53.96
56414;BME280;42318;48.452;19.526;2023-12-04T05:34:57;99058.94;;;19.70;54.01
56414;BME280;42318;48.452;19.526;2023-12-04T05:37:58;99061.66;;;19.70;54.28
56414;BME280;42318;48.452;19.526;2023-12-04T05:40:58;99055.41;;;19.69;54.22
56414;BME280;42318;48.452;19.526;2023-12-04T05:43:59;99058.94;;;19.70;53.98
56414;BME280;42318;48.452;19.526;2023-12-04T05:47:00;99056.22;;;19.70;53.97
56414;BME280;42318;48.452;19.526;2023-12-04T05:50:01;99069.81;;;19.70;54.22
56414;BME280;42318;48.452;19.526;2023-12-04T05:53:01;99060.03;;;19.69;53.95
56414;BME280;42318;48.452;19.526;2023-12-04T05:56:04;99062.75;;;19.69;54.23
56414;BME280;42318;48.452;19.526;2023-12-04T05:59:05;99062.75;;;19.69;53.94
56414;BME280;42318;48.452;19.526;2023-12-04T06:02:05;99057.53;;;19.67;54.04
56414;BME280;42318;48.452;19.526;2023-12-04T06:05:06;99061.31;;;19.66;53.89
56414;BME280;42318;48.452;19.526;2023-12-04T06:08:08;99064.88;;;19.67;54.02
56414;BME280;42318;48.452;19.526;2023-12-04T06:11:08;99052.81;;;19.63;53.95
56414;BME280;42318;48.452;19.526;2023-12-04T06:14:09;99065.69;;;19.67;54.10
56414;BME280;42318;48.452;19.526;2023-12-04T06:17:11;99076.47;;;19.62;53.82
56414;BME280;42318;48.452;19.526;2023-12-04T06:20:11;99079.28;;;19.67;54.15
56414;BME280;42318;48.452;19.526;2023-12-04T06:23:12;99080.34;;;19.66;53.92
56414;BME280;42318;48.452;19.526;2023-12-04T06:26:13;99085.22;;;19.64;53.65
56414;BME280;42318;48.452;19.526;2023-12-04T06:29:14;99081.66;;;19.64;53.90
56414;BME280;42318;48.452;19.526;2023-12-04T06:32:15;99086.03;;;19.65;53.98
56414;BME280;42318;48.452;19.526;2023-12-04T06:35:16;99075.16;;;19.65;53.67
56414;BME280;42318;48.452;19.526;2023-12-04T06:38:18;99087.44;;;19.67;53.95
56414;BME280;42318;48.452;19.526;2023-12-04T06:41:19;99088.28;;;19.68;53.80
56414;BME280;42318;48.452;19.526;2023-12-04T06:44:21;99083.66;;;19.68;53.61
56414;BME280;42318;48.452;19.526;2023-12-04T06:47:23;99067.00;;;19.65;53.53
56414;BME280;42318;48.452;19.526;2023-12-04T06:50:23;99078.81;;;19.70;54.06
56414;BME280;42318;48.452;19.526;2023-12-04T06:53:24;99079.16;;;19.74;53.58
56414;BME280;42318;48.452;19.526;2023-12-04T06:56:25;99080.56;;;19.76;53.68
56414;BME280;42318;48.452;19.526;2023-12-04T06:59:25;99083.88;;;19.79;53.58
56414;BME280;42318;48.452;19.526;2023-12-04T07:02:26;99076.31;;;19.81;53.48
56414;BME280;42318;48.452;19.526;2023-12-04T07:05:27;99089.19;;;19.85;53.60
56414;BME280;42318;48.452;19.526;2023-12-04T07:08:27;99087.63;;;19.89;53.46
56414;BME280;42318;48.452;19.526;2023-12-04T07:11:28;99079.47;;;19.89;53.48
56414;BME280;42318;48.452;19.526;2023-12-04T07:14:28;99089.41;;;19.95;53.30
56414;BME280;42318;48.452;19.526;2023-12-04T07:17:29;99103.78;;;20.07;53.01
56414;BME280;42318;48.452;19.526;2023-12-04T07:20:32;99100.84;;;20.09;52.96
56414;BME280;42318;48.452;19.526;2023-12-04T07:23:33;99103.16;;;20.17;52.47
56414;BME280;42318;48.452;19.526;2023-12-04T07:26:35;99095.69;;;20.24;52.50
56414;BME280;42318;48.452;19.526;2023-12-04T07:29:35;99111.03;;;20.30;52.87
56414;BME280;42318;48.452;19.526;2023-12-04T07:32:38;99108.66;;;20.34;52.71
56414;BME280;42318;48.452;19.526;2023-12-04T07:35:39;99106.91;;;20.40;52.38
56414;BME280;42318;48.452;19.526;2023-12-04T07:38:39;99108.66;;;20.46;51.64
56414;BME280;42318;48.452;19.526;2023-12-04T07:41:40;99108.66;;;20.46;51.84
56414;BME280;42318;48.452;19.526;2023-12-04T07:44:40;99108.28;;;20.54;51.86
56414;BME280;42318;48.452;19.526;2023-12-04T07:47:41;99119.84;;;20.61;51.65
56414;BME280;42318;48.452;19.526;2023-12-04T07:50:42;99122.66;;;20.66;51.59
56414;BME280;42318;48.452;19.526;2023-12-04T07:53:42;99126.53;;;20.70;51.41
56414;BME280;42318;48.452;19.526;2023-12-04T07:56:43;99131.25;;;20.75;52.00
56414;BME280;42318;48.452;19.526;2023-12-04T07:59:44;99120.94;;;20.77;51.69
56414;BME280;42318;48.452;19.526;2023-12-04T08:02:45;99122.69;;;20.83;51.10
56414;BME280;42318;48.452;19.526;2023-12-04T08:05:46;99102.44;;;20.79;51.26
56414;BME280;42318;48.452;19.526;2023-12-04T08:08:46;99116.25;;;20.89;50.93
56414;BME280;42318;48.452;19.526;2023-12-04T08:11:47;99120.13;;;20.93;51.14
56414;BME280;42318;48.452;19.526;2023-12-04T08:14:48;99116.94;;;20.96;51.24
56414;BME280;42318;48.452;19.526;2023-12-04T08:17:49;99115.59;;;20.98;51.57
56414;BME280;42318;48.452;19.526;2023-12-04T08:20:49;99117.50;;;20.98;51.14
56414;BME280;42318;48.452;19.526;2023-12-04T08:23:50;99122.69;;;20.99;51.11
56414;BME280;42318;48.452;19.526;2023-12-04T08:26:50;99121.06;;;20.98;51.17
56414;BME280;42318;48.452;19.526;2023-12-04T08:29:51;99121.78;;;20.94;51.41
56414;BME280;42318;48.452;19.526;2023-12-04T08:32:52;99124.50;;;20.94;51.10
56414;BME280;42318;48.452;19.526;2023-12-04T08:35:52;99134.59;;;20.93;51.65
56414;BME280;42318;48.452;19.526;2023-12-04T08:38:53;99131.28;;;20.91;51.18
56414;BME280;42318;48.452;19.526;2023-12-04T08:41:54;99127.97;;;20.89;51.11
56414;BME280;42318;48.452;19.526;2023-12-04T08:44:54;99122.78;;;20.88;51.15
56414;BME280;42318;48.452;19.526;2023-12-04T08:47:55;99123.03;;;20.86;51.22
56414;BME280;42318;48.452;19.526;2023-12-04T08:50:55;99136.91;;;20.85;51.80
56414;BME280;42318;48.452;19.526;2023-12-04T08:53:57;99128.16;;;20.83;51.50
56414;BME280;42318;48.452;19.526;2023-12-04T08:56:57;99117.88;;;20.73;51.59
56414;BME280;42318;48.452;19.526;2023-12-04T08:59:58;99141.41;;;20.79;51.58
56414;BME280;42318;48.452;19.526;2023-12-04T09:03:00;99142.47;;;20.78;52.19
56414;BME280;42318;48.452;19.526;2023-12-04T09:06:01;99146.25;;;20.77;52.13
56414;BME280;42318;48.452;19.526;2023-12-04T09:09:01;99143.78;;;20.76;52.36
56414;BME280;42318;48.452;19.526;2023-12-04T09:12:02;99136.69;;;20.75;52.48
56414;BME280;42318;48.452;19.526;2023-12-04T09:15:05;99138.00;;;20.72;52.51
56414;BME280;42318;48.452;19.526;2023-12-04T09:18:06;99138.81;;;20.73;52.25
56414;BME280;42318;48.452;19.526;2023-12-04T09:21:06;99130.06;;;20.70;52.40
56414;BME280;42318;48.452;19.526;2023-12-04T09:24:08;99129.84;;;20.72;52.54
56414;BME280;42318;48.452;19.526;2023-12-04T09:27:09;99112.66;;;20.72;52.78
56414;BME280;42318;48.452;19.526;2023-12-04T09:30:10;99113.75;;;20.70;52.58
56414;BME280;42318;48.452;19.526;2023-12-04T09:33:10;99107.22;;;20.72;52.67
56414;BME280;42318;48.452;19.526;2023-12-04T09:36:11;99107.47;;;20.70;52.73
56414;BME280;42318;48.452;19.526;2023-12-04T09:39:12;99102.03;;;20.70;52.72
56414;BME280;42318;48.452;19.526;2023-12-04T09:42:13;99096.25;;;20.66;52.53
56414;BME280;42318;48.452;19.526;2023-12-04T09:45:14;99106.16;;;20.73;52.49
56414;BME280;42318;48.452;19.526;2023-12-04T09:48:15;99099.78;;;20.67;52.40
56414;BME280;42318;48.452;19.526;2023-12-04T09:51:17;99099.53;;;20.68;52.52
56414;BME280;42318;48.452;19.526;2023-12-04T09:54:19;99097.91;;;20.67;52.86
56414;BME280;42318;48.452;19.526;2023-12-04T09:57:21;99090.78;;;20.66;53.01
56414;BME280;42318;48.452;19.526;2023-12-04T10:00:23;99101.53;;;20.73;52.60
56414;BME280;42318;48.452;19.526;2023-12-04T10:03:25;99093.34;;;20.73;53.14
56414;BME280;42318;48.452;19.526;2023-12-04T10:06:27;99093.59;;;20.72;52.68
56414;BME280;42318;48.452;19.526;2023-12-04T10:09:29;99076.94;;;20.68;52.85
56414;BME280;42318;48.452;19.526;2023-12-04T10:12:30;99079.41;;;20.69;52.90
56414;BME280;42318;48.452;19.526;2023-12-04T10:15:31;99077.75;;;20.68;52.74
56414;BME280;42318;48.452;19.526;2023-12-04T10:18:32;99078.25;;;20.65;52.78
56414;BME280;42318;48.452;19.526;2023-12-04T10:21:34;99071.16;;;20.64;53.08
56414;BME280;42318;48.452;19.526;2023-12-04T10:24:36;99069.66;;;20.57;52.63
56414;BME280;42318;48.452;19.526;2023-12-04T10:27:37;99079.00;;;20.61;52.87
56414;BME280;42318;48.452;19.526;2023-12-04T10:30:38;99079.00;;;20.61;52.30
56414;BME280;42318;48.452;19.526;2023-12-04T10:33:40;99073.78;;;20.59;53.17
56414;BME280;42318;48.452;19.526;2023-12-04T10:36:41;99070.25;;;20.59;53.02
56414;BME280;42318;48.452;19.526;2023-12-04T10:39:50;99065.88;;;20.58;52.63
56414;BME280;42318;48.452;19.526;2023-12-04T10:46:14;99060.09;;;20.54;53.12
56414;BME280;42318;48.452;19.526;2023-12-04T10:49:17;99057.63;;;20.53;53.09
56414;BME280;42318;48.452;19.526;2023-12-04T10:52:19;99057.63;;;20.53;53.21
56414;BME280;42318;48.452;19.526;2023-12-04T10:55:20;99047.56;;;20.53;53.08
56414;BME280;42318;48.452;19.526;2023-12-04T10:58:23;99053.00;;;20.53;53.04
56414;BME280;42318;48.452;19.526;2023-12-04T11:01:27;99045.66;;;20.54;53.61
56414;BME280;42318;48.452;19.526;2023-12-04T11:04:28;99048.88;;;20.51;52.72
56414;BME280;42318;48.452;19.526;2023-12-04T11:07:33;99050.28;;;20.53;53.18
56414;BME280;42318;48.452;19.526;2023-12-04T11:10:46;99044.59;;;20.55;52.98
56414;BME280;42318;48.452;19.526;2023-12-04T11:13:50;99038.06;;;20.56;53.44
56414;BME280;42318;48.452;19.526;2023-12-04T11:17:00;99031.56;;;20.57;53.64
56414;BME280;42318;48.452;19.526;2023-12-04T11:20:07;99036.75;;;20.58;53.52
56414;BME280;42318;48.452;19.526;2023-12-04T11:23:12;99027.75;;;20.58;53.36
56414;BME280;42318;48.452;19.526;2023-12-04T11:26:14;99025.63;;;20.60;53.41
56414;BME280;42318;48.452;19.526;2023-12-04T11:29:15;99032.47;;;20.62;53.25
56414;BME280;42318;48.452;19.526;2023-12-04T11:32:17;99033.28;;;20.63;53.32
56414;BME280;42318;48.452;19.526;2023-12-04T11:35:18;99025.25;;;20.11;36.91
56414;BME280;42318;48.452;19.526;2023-12-04T11:38:19;99015.50;;;18.76;33.98
56414;BME280;42318;48.452;19.526;2023-12-04T11:41:24;99015.84;;;17.97;33.14
56414;BME280;42318;48.452;19.526;2023-12-04T11:44:25;99023.00;;;18.63;46.06
56414;BME280;42318;48.452;19.526;2023-12-04T11:47:28;99017.63;;;18.98;47.84
56414;BME280;42318;48.452;19.526;2023-12-04T11:50:29;99018.47;;;19.22;48.39
56414;BME280;42318;48.452;19.526;2023-12-04T11:53:30;99013.59;;;19.35;49.67
56414;BME280;42318;48.452;19.526;2023-12-04T11:56:32;99007.22;;;19.53;50.07
56414;BME280;42318;48.452;19.526;2023-12-04T11:59:37;98996.09;;;19.66;50.01
56414;BME280;42318;48.452;19.526;2023-12-04T12:03:07;98998.41;;;19.74;50.47
56414;BME280;42318;48.452;19.526;2023-12-04T12:06:07;98980.88;;;19.82;50.89
56414;BME280;42318;48.452;19.526;2023-12-04T12:09:09;98984.53;;;19.88;51.12
56414;BME280;42318;48.452;19.526;2023-12-04T12:12:09;98974.22;;;19.90;50.79
56414;BME280;42318;48.452;19.526;2023-12-04T12:15:12;98978.25;;;19.99;51.10
56414;BME280;42318;48.452;19.526;2023-12-04T12:18:13;98978.56;;;20.02;51.36
56414;BME280;42318;48.452;19.526;2023-12-04T12:21:14;98969.59;;;20.02;51.42
56414;BME280;42318;48.452;19.526;2023-12-04T12:24:14;98960.19;;;20.10;51.72
56414;BME280;42318;48.452;19.526;2023-12-04T12:27:15;98956.16;;;20.12;51.68
56414;BME280;42318;48.452;19.526;2023-12-04T12:30:16;98964.06;;;20.14;51.37
56414;BME280;42318;48.452;19.526;2023-12-04T12:33:16;98956.50;;;20.16;51.51
56414;BME280;42318;48.452;19.526;2023-12-04T12:36:17;98951.31;;;20.14;51.92
56414;BME280;42318;48.452;19.526;2023-12-04T12:39:18;98952.47;;;20.18;51.75
56414;BME280;42318;48.452;19.526;2023-12-04T12:42:29;98943.22;;;20.19;51.32
56414;BME280;42318;48.452;19.526;2023-12-04T12:45:38;98943.47;;;20.18;51.74
56414;BME280;42318;48.452;19.526;2023-12-04T12:48:39;98948.09;;;20.17;51.49
56414;BME280;42318;48.452;19.526;2023-12-04T12:51:42;98950.22;;;20.15;51.88
56414;BME280;42318;48.452;19.526;2023-12-04T12:54:43;98948.59;;;20.14;51.74
56414;BME280;42318;48.452;19.526;2023-12-04T12:57:44;98940.09;;;20.11;51.72
56414;BME280;42318;48.452;19.526;2023-12-04T13:00:45;98944.22;;;20.13;51.62
56414;BME280;42318;48.452;19.526;2023-12-04T13:03:46;98937.13;;;20.12;51.99
56414;BME280;42318;48.452;19.526;2023-12-04T13:06:47;98932.50;;;20.13;51.71
56414;BME280;42318;48.452;19.526;2023-12-04T13:09:48;98932.50;;;20.13;51.88
56414;BME280;42318;48.452;19.526;2023-12-04T13:12:50;98925.41;;;20.12;52.16
56414;BME280;42318;48.452;19.526;2023-12-04T13:15:56;98926.47;;;20.11;52.44
56414;BME280;42318;48.452;19.526;2023-12-04T13:18:56;98922.94;;;20.10;52.50
56414;BME280;42318;48.452;19.526;2023-12-04T13:21:57;98903.00;;;20.04;52.22
56414;BME280;42318;48.452;19.526;2023-12-04T13:24:58;98915.03;;;20.08;52.00
56414;BME280;42318;48.452;19.526;2023-12-04T13:27:58;98916.34;;;20.06;52.27
56414;BME280;42318;48.452;19.526;2023-12-04T13:30:59;98913.03;;;20.04;52.32
56414;BME280;42318;48.452;19.526;2023-12-04T13:34:00;98915.75;;;20.04;52.47
56414;BME280;42318;48.452;19.526;2023-12-04T13:37:03;98915.19;;;20.02;52.24
56414;BME280;42318;48.452;19.526;2023-12-04T13:40:04;98921.69;;;20.01;52.40
56414;BME280;42318;48.452;19.526;2023-12-04T13:43:07;98922.78;;;20.00;52.71
56414;BME280;42318;48.452;19.526;2023-12-04T13:46:26;98906.38;;;19.95;53.23
56414;BME280;42318;48.452;19.526;2023-12-04T13:49:30;98911.88;;;20.00;52.73
56414;BME280;42318;48.452;19.526;2023-12-04T13:52:30;98907.53;;;19.99;53.26
56414;BME280;42318;48.452;19.526;2023-12-04T13:55:34;98910.25;;;19.99;53.26
56414;BME280;42318;48.452;19.526;2023-12-04T13:58:53;98905.63;;;19.99;53.31
56414;BME280;42318;48.452;19.526;2023-12-04T14:01:57;98906.69;;;19.98;53.42
56414;BME280;42318;48.452;19.526;2023-12-04T14:05:00;98916.50;;;19.99;53.42
56414;BME280;42318;48.452;19.526;2023-12-04T14:08:01;98906.94;;;19.97;53.55
56414;BME280;42318;48.452;19.526;2023-12-04T14:11:04;98914.03;;;19.98;53.43
56414;BME280;42318;48.452;19.526;2023-12-04T14:14:05;98918.66;;;19.97;53.58
56414;BME280;42318;48.452;19.526;2023-12-04T14:17:06;98921.59;;;19.96;53.81
56414;BME280;42318;48.452;19.526;2023-12-04T14:20:08;98923.50;;;19.95;53.74
56414;BME280;42318;48.452;19.526;2023-12-04T14:23:15;98931.41;;;19.97;53.52
56414;BME280;42318;48.452;19.526;2023-12-04T14:26:16;98920.31;;;19.70;49.42
56414;BME280;42318;48.452;19.526;2023-12-04T14:29:17;98921.38;;;19.69;51.07
56414;BME280;42318;48.452;19.526;2023-12-04T14:32:17;98922.28;;;19.74;52.63
56414;BME280;42318;48.452;19.526;2023-12-04T14:35:20;98928.41;;;19.82;53.02
56414;BME280;42318;48.452;19.526;2023-12-04T14:38:21;98921.06;;;19.82;53.35
56414;BME280;42318;48.452;19.526;2023-12-04T14:41:23;98921.88;;;19.83;53.45
56414;BME280;42318;48.452;19.526;2023-12-04T14:44:23;98919.75;;;19.85;53.61
56414;BME280;42318;48.452;19.526;2023-12-04T14:47:24;98910.53;;;19.86;53.97
56414;BME280;42318;48.452;19.526;2023-12-04T14:50:24;98905.56;;;19.83;54.20
56414;BME280;42318;48.452;19.526;2023-12-04T14:53:25;98906.97;;;19.85;54.45
56414;BME280;42318;48.452;19.526;2023-12-04T14:56:31;98905.09;;;19.86;54.51
56414;BME280;42318;48.452;19.526;2023-12-04T14:59:37;98902.38;;;19.86;54.69
56414;BME280;42318;48.452;19.526;2023-12-04T15:02:50;98901.28;;;19.87;54.65
56414;BME280;42318;48.452;19.526;2023-12-04T15:05:54;98905.09;;;19.86;54.73
56414;BME280;42318;48.452;19.526;2023-12-04T15:09:12;98898.56;;;19.87;54.96
56414;BME280;42318;48.452;19.526;2023-12-04T15:12:32;98904.00;;;19.87;54.58
56414;BME280;42318;48.452;19.526;2023-12-04T15:15:51;98905.09;;;19.86;54.86
56414;BME280;42318;48.452;19.526;2023-12-04T15:19:10;98900.47;;;19.86;54.85
56414;BME280;42318;48.452;19.526;2023-12-04T15:22:28;98903.19;;;19.86;55.14
56414;BME280;42318;48.452;19.526;2023-12-04T15:25:29;98900.47;;;19.86;55.29
56414;BME280;42318;48.452;19.526;2023-12-04T15:28:29;98886.78;;;19.81;55.34
56414;BME280;42318;48.452;19.526;2023-12-04T15:31:31;98885.97;;;19.81;55.37
56414;BME280;42318;48.452;19.526;2023-12-04T15:34:32;98897.75;;;19.86;55.34
56414;BME280;42318;48.452;19.526;2023-12-04T15:37:33;98901.28;;;19.87;55.51
56414;BME280;42318;48.452;19.526;2023-12-04T15:40:34;98900.47;;;19.86;55.61
56414;BME280;42318;48.452;19.526;2023-12-04T15:43:35;98896.09;;;19.85;55.78
56414;BME280;42318;48.452;19.526;2023-12-04T15:46:35;98893.03;;;19.82;55.66
56414;BME280;42318;48.452;19.526;2023-12-04T15:49:36;98905.91;;;19.86;55.80
56414;BME280;42318;48.452;19.526;2023-12-04T15:52:36;98902.38;;;19.86;55.56